Time;durP1;ratioP1;P1;durP2;ratioP2;P2;SDS_P1;SDS_P2;PMS_P1;PMS_P2;Temp;Humidity;BMP_temperature;BMP_pressure;BME280_temperature;BME280_humidity;BME280_pressure;Samples;Min_cycle;Max_cycle;Signal;HPM_P1;HPM_P2
2021/10/14 00:01:09;;;;;;;4.97;2.85;;;3.30;99.90;;;;;;5029663;28;20163;-75
2021/10/14 00:03:35;;;;;;;3.40;2.75;;;3.40;99.90;;;;;;5029902;28;20193;-75
2021/10/14 00:06:01;;;;;;;3.92;2.60;;;3.40;99.90;;;;;;5028645;28;20174;-75
2021/10/14 00:08:27;;;;;;;3.95;2.42;;;3.60;99.90;;;;;;5029647;28;20166;-75
2021/10/14 00:10:53;;;;;;;5.53;2.95;;;3.40;99.90;;;;;;5028183;28;20170;-76
2021/10/14 00:13:19;;;;;;;4.45;2.97;;;3.20;99.90;;;;;;5029922;28;20202;-75
2021/10/14 00:15:45;;;;;;;4.40;2.80;;;3.30;99.90;;;;;;5029671;28;20188;-75
2021/10/14 00:18:11;;;;;;;6.47;2.97;;;3.50;99.90;;;;;;5029657;28;20173;-75
2021/10/14 00:20:36;;;;;;;4.57;3.05;;;3.60;99.90;;;;;;5011424;28;20229;-75
2021/10/14 00:23:02;;;;;;;4.68;2.72;;;3.40;99.90;;;;;;5011764;28;20582;-75
2021/10/14 00:25:28;;;;;;;4.72;2.67;;;3.30;99.90;;;;;;5011830;28;20257;-75
2021/10/14 00:27:54;;;;;;;5.03;2.72;;;3.30;99.90;;;;;;5029520;28;20197;-75
2021/10/14 00:30:20;;;;;;;5.10;2.65;;;3.20;99.90;;;;;;5011226;28;20170;-75
2021/10/14 00:32:46;;;;;;;3.15;2.45;;;3.10;99.90;;;;;;5029315;28;20240;-75
2021/10/14 00:35:12;;;;;;;5.00;2.70;;;2.90;99.90;;;;;;5029343;28;20192;-75
2021/10/14 00:37:38;;;;;;;5.05;2.75;;;2.80;99.90;;;;;;5029339;28;20209;-75
2021/10/14 00:40:05;;;;;;;4.40;2.60;;;2.80;99.90;;;;;;5029561;28;20158;-75
2021/10/14 00:42:31;;;;;;;6.43;3.15;;;2.70;99.90;;;;;;5011702;28;20193;-75
2021/10/14 00:44:58;;;;;;;6.43;3.53;;;2.60;99.90;;;;;;5029422;28;20161;-75
2021/10/14 00:47:28;;;;;;;3.40;2.15;;;2.70;99.90;;;;;;5057732;28;20203;-76
2021/10/14 00:49:55;;;;;;;2.85;2.05;;;2.60;99.90;;;;;;5069141;28;20184;-75
2021/10/14 00:52:22;;;;;;;4.57;2.80;;;2.50;99.90;;;;;;5041498;28;20339;-76
2021/10/14 00:54:55;;;;;;;3.60;2.58;;;2.60;99.90;;;;;;5067702;28;20540;-75
2021/10/14 00:57:22;;;;;;;4.70;2.67;;;2.60;99.90;;;;;;5068859;28;20204;-75
2021/10/14 00:59:51;;;;;;;3.28;2.00;;;2.50;99.90;;;;;;5069045;28;20189;-75
2021/10/14 01:02:17;;;;;;;3.47;2.08;;;2.60;99.90;;;;;;5068971;28;20157;-75
2021/10/14 01:04:43;;;;;;;3.03;1.83;;;2.60;99.90;;;;;;5068856;28;20160;-75
2021/10/14 01:07:09;;;;;;;1.75;1.40;;;2.70;99.90;;;;;;5066463;28;20211;-75
2021/10/14 01:09:35;;;;;;;4.20;2.22;;;2.80;99.90;;;;;;5068653;28;20236;-75
2021/10/14 01:12:03;;;;;;;3.53;1.52;;;3.00;99.90;;;;;;5067314;28;20196;-75
2021/10/14 01:14:29;;;;;;;3.58;1.73;;;3.10;99.90;;;;;;5063678;28;20218;-75
2021/10/14 01:16:56;;;;;;;6.47;2.17;;;3.10;99.90;;;;;;5064041;28;20212;-76
2021/10/14 01:19:21;;;;;;;3.25;1.80;;;2.90;99.90;;;;;;5064245;28;20165;-76
2021/10/14 01:21:51;;;;;;;3.38;1.95;;;2.90;99.90;;;;;;5065739;28;20206;-76
2021/10/14 01:24:17;;;;;;;3.95;1.75;;;3.00;99.90;;;;;;5066504;28;20167;-75
2021/10/14 01:26:43;;;;;;;5.47;1.40;;;3.10;99.90;;;;;;5066370;28;20172;-75
2021/10/14 01:29:10;;;;;;;3.08;1.92;;;2.90;99.90;;;;;;5066582;28;20176;-75
2021/10/14 01:31:37;;;;;;;3.75;1.70;;;2.80;99.90;;;;;;5068467;28;20185;-75
2021/10/14 01:34:03;;;;;;;4.38;1.67;;;3.00;99.90;;;;;;5067025;28;20180;-75
2021/10/14 01:36:30;;;;;;;2.42;1.77;;;3.00;99.90;;;;;;5068306;28;20195;-75
2021/10/14 01:38:56;;;;;;;4.00;2.42;;;3.10;99.90;;;;;;5068369;28;20153;-75
2021/10/14 01:41:22;;;;;;;4.00;1.80;;;3.00;99.90;;;;;;5068214;28;20224;-75
2021/10/14 01:43:48;;;;;;;2.78;1.70;;;3.00;99.90;;;;;;5066978;28;20645;-75
2021/10/14 01:46:14;;;;;;;5.50;1.55;;;3.00;99.90;;;;;;5068343;28;20267;-75
2021/10/14 01:48:40;;;;;;;2.95;1.70;;;2.90;99.90;;;;;;5066960;28;20268;-75
2021/10/14 01:51:09;;;;;;;2.92;1.88;;;2.90;99.90;;;;;;5068121;28;20188;-75
2021/10/14 01:53:35;;;;;;;4.10;2.15;;;2.80;99.90;;;;;;5066588;28;20220;-75
2021/10/14 01:56:01;;;;;;;5.30;2.00;;;2.80;99.90;;;;;;5067942;28;20211;-75
2021/10/14 01:58:27;;;;;;;2.40;1.50;;;2.90;99.90;;;;;;5068064;28;20157;-75
2021/10/14 02:00:53;;;;;;;4.32;2.20;;;2.70;99.90;;;;;;5067942;28;20199;-75
2021/10/14 02:03:19;;;;;;;1.85;1.40;;;2.60;99.90;;;;;;5067963;28;20165;-75
2021/10/14 02:05:45;;;;;;;4.32;1.80;;;2.60;99.90;;;;;;5068094;28;20258;-75
2021/10/14 02:08:12;;;;;;;4.85;1.75;;;2.60;99.90;;;;;;5068122;28;20161;-75
2021/10/14 02:10:40;;;;;;;4.15;2.50;;;2.50;99.90;;;;;;5067858;28;20153;-75
2021/10/14 02:13:06;;;;;;;1.88;1.70;;;2.60;99.90;;;;;;5067990;28;20161;-75
2021/10/14 02:15:32;;;;;;;1.83;1.63;;;2.50;99.90;;;;;;5066590;28;20202;-75
2021/10/14 02:17:59;;;;;;;5.68;1.33;;;2.40;99.90;;;;;;5067736;28;20185;-75
2021/10/14 02:20:25;;;;;;;3.42;1.75;;;2.50;99.90;;;;;;5066512;28;20646;-75
2021/10/14 02:22:51;;;;;;;3.90;1.83;;;2.40;99.90;;;;;;5068002;28;20210;-75
2021/10/14 02:25:19;;;;;;;5.55;2.42;;;2.50;99.90;;;;;;5068564;28;20188;-75
2021/10/14 02:27:44;;;;;;;3.15;1.58;;;2.40;99.90;;;;;;5071777;28;20157;-75
2021/10/14 02:30:12;;;;;;;2.15;1.55;;;2.30;99.90;;;;;;5071659;28;20210;-75
2021/10/14 02:32:39;;;;;;;4.53;1.55;;;2.30;99.90;;;;;;5071603;28;20275;-75
2021/10/14 02:35:06;;;;;;;3.72;1.95;;;2.20;99.90;;;;;;5071562;28;20165;-75
2021/10/14 02:37:33;;;;;;;2.50;1.80;;;2.10;99.90;;;;;;5070062;28;20200;-75
2021/10/14 02:39:59;;;;;;;4.50;1.33;;;2.30;99.90;;;;;;5071521;28;20156;-75
2021/10/14 02:42:25;;;;;;;3.00;1.75;;;2.50;99.90;;;;;;5071352;28;20185;-75
2021/10/14 02:44:51;;;;;;;1.90;1.48;;;2.40;99.90;;;;;;5071521;28;20172;-75
2021/10/14 02:47:17;;;;;;;2.63;1.65;;;2.40;99.90;;;;;;5071600;28;20168;-75
2021/10/14 02:49:43;;;;;;;3.35;1.77;;;2.40;99.90;;;;;;5070483;28;20176;-76
2021/10/14 02:52:09;;;;;;;4.43;1.52;;;2.30;99.90;;;;;;5067459;28;20217;-76
2021/10/14 02:54:35;;;;;;;2.42;1.40;;;2.20;99.90;;;;;;5033868;28;20203;-76
2021/10/14 02:57:01;;;;;;;3.30;1.27;;;2.40;99.90;;;;;;5051595;28;20209;-75
2021/10/14 02:59:27;;;;;;;2.67;1.42;;;2.50;99.90;;;;;;5051385;28;20208;-75
2021/10/14 03:01:52;;;;;;;3.72;2.05;;;2.60;99.90;;;;;;5050998;28;20189;-75
2021/10/14 03:04:18;;;;;;;3.08;2.00;;;2.50;99.90;;;;;;5033241;28;20245;-75
2021/10/14 03:06:44;;;;;;;2.03;1.65;;;2.50;99.90;;;;;;5051227;28;20196;-76
2021/10/14 03:09:11;;;;;;;12.82;3.05;;;2.50;99.90;;;;;;5050864;28;20166;-75
2021/10/14 03:11:37;;;;;;;3.08;2.17;;;2.30;99.90;;;;;;5050745;28;20208;-76
2021/10/14 03:14:03;;;;;;;6.78;2.58;;;2.20;99.90;;;;;;5050783;28;20169;-76
2021/10/14 03:16:29;;;;;;;4.78;2.30;;;2.10;99.90;;;;;;5050651;28;20212;-75
2021/10/14 03:18:55;;;;;;;9.68;2.58;;;2.00;99.90;;;;;;5050888;28;20698;-77
2021/10/14 03:21:22;;;;;;;14.98;3.25;;;2.00;99.90;;;;;;5051084;28;20185;-76
2021/10/14 03:23:52;;;;;;;7.80;2.47;;;2.00;99.90;;;;;;5032916;28;20183;-75
2021/10/14 03:26:18;;;;;;;3.42;1.88;;;2.00;99.90;;;;;;5050696;28;20168;-76
2021/10/14 03:28:44;;;;;;;7.15;1.88;;;2.10;99.90;;;;;;5050652;28;20165;-75
2021/10/14 03:31:10;;;;;;;6.75;1.67;;;2.20;99.90;;;;;;5050552;28;20264;-75
2021/10/14 03:33:37;;;;;;;8.15;2.22;;;2.00;99.90;;;;;;5032835;28;20169;-75
2021/10/14 03:36:04;;;;;;;6.95;1.85;;;2.10;99.90;;;;;;5049930;28;20216;-75
2021/10/14 03:38:30;;;;;;;12.73;3.35;;;2.00;99.90;;;;;;5045478;28;20216;-74
2021/10/14 03:40:57;;;;;;;10.45;2.83;;;1.90;99.90;;;;;;5050305;28;20237;-77
2021/10/14 03:43:23;;;;;;;6.80;2.50;;;2.00;99.90;;;;;;5050279;28;20165;-76
2021/10/14 03:45:49;;;;;;;6.90;3.70;;;2.00;99.90;;;;;;5050300;28;20157;-76
2021/10/14 03:48:15;;;;;;;6.20;3.33;;;1.90;99.90;;;;;;5049985;28;20193;-76
2021/10/14 03:50:41;;;;;;;12.88;3.13;;;1.90;99.90;;;;;;5032345;28;20213;-76
2021/10/14 03:53:09;;;;;;;8.45;2.45;;;2.10;99.90;;;;;;5052833;28;20224;-76
2021/10/14 03:55:35;;;;;;;3.25;2.03;;;2.20;99.90;;;;;;5070150;28;20149;-75
2021/10/14 03:58:02;;;;;;;7.68;1.60;;;2.00;99.90;;;;;;5068569;28;20208;-76
2021/10/14 04:00:29;;;;;;;3.47;2.05;;;2.10;99.90;;;;;;5069983;28;20157;-74
2021/10/14 04:02:55;;;;;;;7.30;3.22;;;2.00;99.90;;;;;;5070151;28;20183;-75
2021/10/14 04:05:21;;;;;;;3.80;1.83;;;2.10;99.90;;;;;;5069937;28;20157;-75
2021/10/14 04:07:47;;;;;;;9.38;2.58;;;2.10;99.90;;;;;;5068570;28;20641;-75
2021/10/14 04:10:14;;;;;;;4.57;2.05;;;2.10;99.90;;;;;;5068349;28;20200;-76
2021/10/14 04:12:41;;;;;;;4.75;1.25;;;2.00;99.90;;;;;;5068357;28;20240;-76
2021/10/14 04:15:08;;;;;;;5.32;1.65;;;1.70;99.90;;;;;;5069729;28;20184;-75
2021/10/14 04:17:34;;;;;;;7.63;2.00;;;1.70;99.90;;;;;;5069536;28;20565;-76
2021/10/14 04:20:00;;;;;;;7.68;2.70;;;1.60;99.90;;;;;;5069578;28;20184;-75
2021/10/14 04:22:27;;;;;;;5.45;2.22;;;1.50;99.90;;;;;;5069634;28;20163;-76
2021/10/14 04:24:54;;;;;;;5.80;2.13;;;1.60;99.90;;;;;;5069738;28;20625;-76
2021/10/14 04:27:19;;;;;;;4.47;2.35;;;1.60;99.90;;;;;;5069526;28;20246;-76
2021/10/14 04:29:45;;;;;;;15.55;2.85;;;1.60;99.90;;;;;;5069430;28;20169;-76
2021/10/14 04:32:12;;;;;;;3.20;1.75;;;1.50;99.90;;;;;;5069772;28;20169;-77
2021/10/14 04:34:39;;;;;;;10.60;3.25;;;1.50;99.90;;;;;;5069508;28;20161;-76
2021/10/14 04:37:06;;;;;;;4.68;2.05;;;1.70;99.90;;;;;;5069140;28;20184;-77
2021/10/14 04:39:38;;;;;;;4.38;2.55;;;1.50;99.90;;;;;;5067783;28;20175;-76
2021/10/14 04:42:05;;;;;;;13.07;2.15;;;1.40;99.90;;;;;;5068166;28;20169;-76
2021/10/14 04:44:31;;;;;;;5.63;2.22;;;1.50;99.90;;;;;;5069365;28;20188;-77
2021/10/14 04:46:57;;;;;;;3.35;2.30;;;1.50;99.90;;;;;;5067697;28;20176;-77
2021/10/14 04:49:23;;;;;;;3.80;2.03;;;1.60;99.90;;;;;;5066993;28;20179;-76
2021/10/14 04:51:49;;;;;;;7.57;2.45;;;1.70;99.90;;;;;;5067361;28;20165;-75
2021/10/14 04:54:15;;;;;;;3.88;1.90;;;1.70;99.90;;;;;;5049016;28;20174;-76
2021/10/14 04:56:41;;;;;;;8.55;3.15;;;1.70;99.90;;;;;;5048982;28;20650;-77
2021/10/14 04:59:07;;;;;;;6.47;2.55;;;1.70;99.90;;;;;;5048546;28;20216;-76
2021/10/14 05:01:32;;;;;;;8.43;2.75;;;1.70;99.90;;;;;;5048534;28;20177;-75
2021/10/14 05:03:58;;;;;;;8.70;2.85;;;1.70;99.90;;;;;;5048555;28;20160;-75
2021/10/14 05:06:24;;;;;;;4.35;2.25;;;1.50;99.90;;;;;;5048517;28;20162;-75
2021/10/14 05:08:50;;;;;;;6.97;1.92;;;1.40;99.90;;;;;;5030131;28;20207;-75
2021/10/14 05:11:16;;;;;;;6.15;2.90;;;1.30;99.90;;;;;;5048339;28;20165;-75
2021/10/14 05:13:43;;;;;;;3.88;2.10;;;1.40;99.90;;;;;;5048248;28;20193;-76
2021/10/14 05:16:09;;;;;;;7.03;2.75;;;1.40;99.90;;;;;;5048260;28;20220;-76
2021/10/14 05:18:35;;;;;;;6.82;2.17;;;1.50;99.90;;;;;;5048275;28;20634;-75
2021/10/14 05:21:01;;;;;;;11.38;2.47;;;1.50;99.90;;;;;;5048232;28;20217;-75
2021/10/14 05:23:28;;;;;;;9.55;4.78;;;1.60;99.90;;;;;;5030524;28;20241;-76
2021/10/14 05:25:55;;;;;;;7.10;4.22;;;1.50;99.90;;;;;;5048188;28;20179;-75
2021/10/14 05:28:21;;;;;;;7.20;3.13;;;1.50;99.90;;;;;;5048078;28;20200;-76
2021/10/14 05:30:49;;;;;;;4.75;2.70;;;1.60;99.90;;;;;;5048033;28;20624;-77
2021/10/14 05:33:15;;;;;;;6.78;2.80;;;1.60;99.90;;;;;;5048234;28;20153;-77
2021/10/14 05:35:41;;;;;;;3.13;2.33;;;1.70;99.90;;;;;;5048254;28;20164;-77
2021/10/14 05:38:07;;;;;;;3.15;2.20;;;1.50;99.90;;;;;;5030072;28;20213;-77
2021/10/14 05:40:34;;;;;;;7.70;2.60;;;1.40;99.90;;;;;;5029857;28;20199;-75
2021/10/14 05:43:02;;;;;;;8.15;2.83;;;1.40;99.90;;;;;;5047906;28;20160;-75
2021/10/14 05:45:28;;;;;;;12.80;2.65;;;1.50;99.90;;;;;;5029991;28;20219;-76
2021/10/14 05:47:54;;;;;;;6.72;3.05;;;1.50;99.90;;;;;;5047436;28;20197;-75
2021/10/14 05:50:20;;;;;;;5.53;2.00;;;1.70;99.90;;;;;;5029961;28;20621;-76
2021/10/14 05:52:45;;;;;;;14.45;3.28;;;1.70;99.90;;;;;;5047896;28;20248;-76
2021/10/14 05:55:12;;;;;;;6.43;2.75;;;1.80;99.90;;;;;;5047772;28;20192;-75
2021/10/14 05:57:38;;;;;;;5.53;2.15;;;1.80;99.90;;;;;;5047929;28;20209;-75
2021/10/14 06:00:04;;;;;;;11.98;2.90;;;1.90;99.90;;;;;;5051340;28;20219;-75
2021/10/14 06:02:30;;;;;;;10.30;2.95;;;1.90;99.90;;;;;;5054323;28;20180;-75
2021/10/14 06:04:56;;;;;;;10.88;2.72;;;2.00;99.90;;;;;;5054460;28;20165;-75
2021/10/14 06:07:22;;;;;;;18.40;3.92;;;2.10;99.90;;;;;;5054308;28;20200;-75
2021/10/14 06:09:48;;;;;;;11.48;2.50;;;2.20;99.90;;;;;;5054214;28;20547;-76
2021/10/14 06:12:14;;;;;;;7.32;3.35;;;2.20;99.90;;;;;;5054362;28;20176;-76
2021/10/14 06:14:41;;;;;;;7.82;4.35;;;2.30;99.90;;;;;;5036539;28;20169;-76
2021/10/14 06:17:07;;;;;;;5.97;3.03;;;2.20;99.90;;;;;;5036454;28;20196;-76
2021/10/14 06:19:33;;;;;;;9.18;3.15;;;2.40;99.90;;;;;;5054197;28;20160;-76
2021/10/14 06:21:58;;;;;;;6.22;2.53;;;2.50;99.90;;;;;;5054250;28;20165;-76
2021/10/14 06:24:24;;;;;;;10.60;2.83;;;2.70;99.90;;;;;;5054031;28;20196;-76
2021/10/14 06:26:50;;;;;;;5.82;2.72;;;2.60;99.90;;;;;;5054433;28;20166;-76
2021/10/14 06:29:16;;;;;;;16.45;3.88;;;2.60;99.90;;;;;;5054198;28;20200;-76
2021/10/14 06:31:42;;;;;;;7.70;4.10;;;2.70;99.90;;;;;;5054235;28;20218;-76
2021/10/14 06:34:08;;;;;;;8.00;4.45;;;2.70;99.90;;;;;;5036569;28;20161;-76
2021/10/14 06:36:34;;;;;;;11.52;4.65;;;2.60;99.90;;;;;;5053888;28;20196;-75
2021/10/14 06:39:00;;;;;;;14.13;5.40;;;2.60;99.90;;;;;;5053823;28;20594;-76
2021/10/14 06:41:26;;;;;;;11.25;4.82;;;2.60;99.90;;;;;;5053835;28;20158;-76
2021/10/14 06:43:52;;;;;;;8.73;5.22;;;2.80;99.90;;;;;;5054053;28;20153;-75
2021/10/14 06:46:18;;;;;;;11.88;4.50;;;2.90;99.90;;;;;;5053976;28;20189;-76
2021/10/14 06:48:44;;;;;;;6.53;3.28;;;3.10;99.90;;;;;;5053752;28;20201;-75
2021/10/14 06:51:10;;;;;;;9.90;3.75;;;3.20;99.90;;;;;;5053783;28;20150;-74
2021/10/14 06:53:36;;;;;;;8.55;3.75;;;3.30;99.90;;;;;;5053791;28;20225;-74
2021/10/14 06:56:02;;;;;;;10.60;3.35;;;3.30;99.90;;;;;;5035920;28;20185;-75
2021/10/14 06:58:27;;;;;;;11.13;4.70;;;3.60;99.90;;;;;;5035839;28;20193;-76
2021/10/14 07:00:53;;;;;;;17.77;3.90;;;3.60;99.90;;;;;;5053474;28;20157;-75
2021/10/14 07:03:19;;;;;;;14.57;3.67;;;3.80;99.90;;;;;;5035824;28;20184;-75
2021/10/14 07:05:45;;;;;;;13.82;3.55;;;4.40;99.90;;;;;;5053772;28;20161;-77
2021/10/14 07:08:11;;;;;;;22.60;3.72;;;4.80;99.90;;;;;;5053559;28;20222;-76
2021/10/14 07:10:37;;;;;;;11.90;3.95;;;5.10;99.90;;;;;;5053143;28;20165;-76
2021/10/14 07:13:06;;;;;;;22.00;3.53;;;5.60;99.90;;;;;;5033844;28;20249;-75
2021/10/14 07:15:32;;;;;;;9.00;4.10;;;6.20;99.90;;;;;;5051304;28;20257;-75
2021/10/14 07:18:00;;;;;;;14.15;4.55;;;6.50;99.90;;;;;;5051415;28;20236;-75
2021/10/14 07:20:26;;;;;;;16.42;4.68;;;6.90;99.90;;;;;;5051508;28;20229;-75
2021/10/14 07:22:51;;;;;;;8.25;3.90;;;7.30;99.90;;;;;;5033390;28;20169;-76
2021/10/14 07:25:17;;;;;;;8.45;3.88;;;7.60;99.90;;;;;;5051248;28;20158;-75
2021/10/14 07:27:44;;;;;;;9.57;3.00;;;7.70;99.90;;;;;;5051582;28;20193;-75
2021/10/14 07:30:10;;;;;;;16.70;4.00;;;7.90;99.90;;;;;;5051199;28;20161;-77
2021/10/14 07:32:37;;;;;;;5.95;2.58;;;7.80;99.90;;;;;;5050771;28;20153;-77
2021/10/14 07:35:04;;;;;;;8.93;3.22;;;7.80;99.90;;;;;;5033546;28;20173;-75
2021/10/14 07:37:31;;;;;;;7.63;3.55;;;8.70;99.90;;;;;;5050965;28;20201;-75
2021/10/14 07:39:57;;;;;;;12.20;3.80;;;9.70;99.90;;;;;;5050922;28;20166;-75
2021/10/14 07:42:23;;;;;;;5.88;3.08;;;10.50;99.90;;;;;;5051033;28;20241;-76
2021/10/14 07:44:50;;;;;;;7.32;3.42;;;10.70;99.90;;;;;;5050085;28;20165;-75
2021/10/14 07:47:16;;;;;;;12.50;3.65;;;11.30;99.90;;;;;;5032063;28;20207;-76
2021/10/14 07:49:43;;;;;;;20.63;3.88;;;12.40;99.90;;;;;;5049979;28;20177;-77
2021/10/14 07:52:09;;;;;;;10.27;3.78;;;12.50;99.90;;;;;;5049734;28;20213;-76
2021/10/14 07:54:35;;;;;;;5.85;2.92;;;13.30;99.90;;;;;;5049858;28;20180;-76
2021/10/14 07:57:01;;;;;;;6.97;3.10;;;13.60;99.90;;;;;;5031752;28;20216;-77
2021/10/14 07:59:26;;;;;;;7.05;3.08;;;13.80;99.90;;;;;;5049891;28;20177;-76
2021/10/14 08:01:52;;;;;;;6.40;2.30;;;13.40;99.90;;;;;;5049596;28;20157;-76
2021/10/14 08:04:19;;;;;;;10.52;2.50;;;13.50;99.90;;;;;;5049569;28;20162;-76
2021/10/14 08:06:44;;;;;;;4.97;2.92;;;13.90;99.90;;;;;;5049756;28;20170;-76
2021/10/14 08:09:10;;;;;;;8.55;2.90;;;15.00;99.90;;;;;;5049619;28;20224;-76
2021/10/14 08:11:37;;;;;;;9.68;3.03;;;15.00;99.90;;;;;;5031636;28;20170;-76
2021/10/14 08:14:03;;;;;;;5.95;2.72;;;13.80;99.90;;;;;;5049360;28;20165;-76
2021/10/14 08:16:29;;;;;;;6.75;2.28;;;14.10;99.90;;;;;;5031668;28;20197;-76
2021/10/14 08:18:55;;;;;;;7.55;2.17;;;14.30;99.90;;;;;;5031466;28;20197;-76
2021/10/14 08:21:21;;;;;;;4.97;2.83;;;14.80;99.90;;;;;;5031516;28;20165;-76
2021/10/14 08:23:46;;;;;;;8.90;2.50;;;15.20;99.70;;;;;;5048105;28;20239;-76
2021/10/14 08:26:13;;;;;;;6.80;2.22;;;15.70;99.90;;;;;;5031056;28;20169;-76
2021/10/14 08:28:39;;;;;;;5.93;2.03;;;16.00;99.90;;;;;;5049183;28;20193;-76
2021/10/14 08:31:05;;;;;;;7.75;2.58;;;16.40;99.90;;;;;;5049073;28;20535;-76
2021/10/14 08:33:31;;;;;;;9.55;2.65;;;15.90;99.00;;;;;;5028597;28;20201;-76
2021/10/14 08:35:57;;;;;;;7.38;2.40;;;16.00;99.90;;;;;;5048527;28;20200;-76
2021/10/14 08:38:23;;;;;;;6.10;2.47;;;17.00;99.90;;;;;;5047845;28;20205;-76
2021/10/14 08:40:51;;;;;;;8.13;3.00;;;17.70;97.70;;;;;;5049094;28;20185;-76
2021/10/14 08:43:19;;;;;;;4.22;2.60;;;17.70;98.50;;;;;;5049020;28;20150;-76
2021/10/14 08:45:47;;;;;;;18.08;3.28;;;16.00;99.50;;;;;;5049154;28;20154;-75
2021/10/14 08:48:14;;;;;;;7.80;3.13;;;15.50;99.90;;;;;;5048917;28;20193;-76
2021/10/14 08:50:43;;;;;;;13.57;3.13;;;15.00;99.90;;;;;;5031249;28;20208;-75
2021/10/14 08:53:09;;;;;;;3.25;1.75;;;14.30;99.90;;;;;;5048747;28;20255;-75
2021/10/14 08:55:40;;;;;;;11.23;2.97;;;14.00;99.80;;;;;;5048781;28;20165;-76
2021/10/14 08:58:09;;;;;;;7.65;2.50;;;14.60;99.90;;;;;;5048705;28;20750;-75
2021/10/14 09:00:36;;;;;;;8.27;2.25;;;15.00;99.90;;;;;;5048146;28;20236;-75
2021/10/14 09:03:25;;;;;;;7.55;2.47;;;15.40;99.70;;;;;;5048780;28;20184;-75
2021/10/14 09:05:52;;;;;;;4.03;2.10;;;14.70;99.80;;;;;;5030671;28;20233;-75
2021/10/14 09:08:43;;;;;;;4.97;1.85;;;14.10;99.90;;;;;;5048691;28;20684;-75
2021/10/14 09:11:18;;;;;;;5.13;1.75;;;14.10;99.90;;;;;;5048524;28;20160;-75
2021/10/14 09:14:08;;;;;;;5.18;1.23;;;14.60;99.90;;;;;;5048666;28;20244;-75
2021/10/14 09:16:39;;;;;;;5.80;1.73;;;14.00;99.90;;;;;;5048342;28;20673;-75
2021/10/14 09:19:20;;;;;;;4.90;1.30;;;14.50;99.60;;;;;;5030842;28;20216;-76
2021/10/14 09:22:00;;;;;;;4.03;1.17;;;14.90;98.40;;;;;;5030320;28;20176;-76
2021/10/14 09:24:33;;;;;;;3.88;1.00;;;14.40;97.70;;;;;;5048454;28;20224;-75
2021/10/14 09:27:02;;;;;;;4.00;1.52;;;14.30;98.70;;;;;;5030515;28;20201;-76
2021/10/14 09:29:29;;;;;;;4.68;1.30;;;14.50;98.40;;;;;;5048369;28;20157;-76
2021/10/14 09:31:59;;;;;;;4.70;1.00;;;15.10;98.60;;;;;;5030574;28;20244;-76
2021/10/14 09:34:40;;;;;;;1.98;1.08;;;15.60;97.30;;;;;;5030052;28;20173;-75
2021/10/14 09:37:17;;;;;;;1.20;0.85;;;17.00;98.20;;;;;;5048044;28;20280;-75
2021/10/14 09:40:01;;;;;;;4.72;1.20;;;18.20;98.50;;;;;;5048162;28;20212;-76
2021/10/14 09:43:02;;;;;;;1.58;1.08;;;19.00;98.70;;;;;;5024750;28;20231;-76
2021/10/14 09:45:33;;;;;;;4.55;1.00;;;19.20;94.00;;;;;;5030511;28;20228;-77
2021/10/14 09:48:08;;;;;;;3.67;1.10;;;18.70;96.20;;;;;;5048224;28;20196;-76
2021/10/14 09:50:43;;;;;;;1.35;0.80;;;17.20;95.70;;;;;;5039733;28;20185;-76
2021/10/14 09:53:13;;;;;;;1.60;0.80;;;16.30;97.10;;;;;;5031274;28;20650;-76
2021/10/14 09:55:40;;;;;;;3.20;1.42;;;17.40;98.70;;;;;;5046394;28;20184;-76
2021/10/14 09:58:06;;;;;;;3.97;1.15;;;18.00;94.10;;;;;;5046498;28;20196;-75
2021/10/14 10:00:33;;;;;;;1.75;0.68;;;17.30;93.90;;;;;;5067850;28;20214;-75
2021/10/14 10:03:04;;;;;;;1.95;0.60;;;17.30;94.90;;;;;;5067646;28;20316;-75
2021/10/14 10:05:31;;;;;;;1.27;0.50;;;17.60;93.10;;;;;;5066521;28;20169;-75
2021/10/14 10:07:59;;;;;;;2.47;0.65;;;17.50;96.40;;;;;;5066356;28;20228;-77
2021/10/14 10:10:28;;;;;;;1.77;0.50;;;17.50;94.90;;;;;;5067534;28;20153;-76
2021/10/14 10:12:57;;;;;;;3.50;0.45;;;18.50;95.80;;;;;;5067691;28;20272;-76
2021/10/14 10:16:10;;;;;;;2.53;0.60;;;19.70;96.20;;;;;;5065807;28;20175;-75
2021/10/14 10:18:39;;;;;;;1.27;0.70;;;18.90;91.40;;;;;;4967266;29;20300;-77
2021/10/14 10:21:09;;;;;;;2.25;0.73;;;19.00;96.60;;;;;;4967156;29;20203;-77
2021/10/14 10:23:51;;;;;;;1.20;0.60;;;18.30;93.30;;;;;;4967254;29;20673;-76
2021/10/14 10:26:38;;;;;;;0.68;0.60;;;17.70;92.50;;;;;;4967187;29;20200;-75
2021/10/14 10:29:12;;;;;;;0.75;0.50;;;17.20;94.00;;;;;;4950999;29;20187;-75
2021/10/14 10:31:54;;;;;;;4.18;0.93;;;17.50;95.10;;;;;;4966939;29;20325;-75
2021/10/14 10:34:47;;;;;;;1.50;0.50;;;18.10;93.10;;;;;;4950954;29;20211;-75
2021/10/14 10:37:20;;;;;;;0.75;0.40;;;18.00;92.60;;;;;;4966862;29;20203;-76
2021/10/14 10:39:49;;;;;;;1.17;0.60;;;18.60;95.80;;;;;;4967086;29;20161;-76
2021/10/14 10:42:36;;;;;;;0.52;0.45;;;19.00;96.30;;;;;;4970943;28;20728;-76
2021/10/14 10:45:15;;;;;;;0.47;0.32;;;19.60;91.70;;;;;;4986294;28;20223;-75
2021/10/14 10:47:57;;;;;;;1.52;0.45;;;18.10;93.90;;;;;;4989103;28;20206;-76
2021/10/14 10:50:41;;;;;;;0.47;0.38;;;18.10;96.70;;;;;;4998917;28;20199;-76
2021/10/14 10:53:36;;;;;;;0.82;0.70;;;18.60;93.30;;;;;;5022067;28;20244;-76
2021/10/14 10:56:03;;;;;;;1.02;0.50;;;17.40;93.10;;;;;;5090954;28;20232;-75
2021/10/14 10:58:32;;;;;;;0.98;0.52;;;16.20;95.60;;;;;;5091198;28;20164;-75
2021/10/14 11:00:59;;;;;;;0.82;0.38;;;16.10;97.60;;;;;;5090991;28;20159;-75
2021/10/14 11:03:27;;;;;;;0.90;0.40;;;16.10;98.40;;;;;;5079248;28;20173;-75
2021/10/14 11:05:58;;;;;;;0.43;0.30;;;16.30;96.20;;;;;;5070857;28;20164;-75
2021/10/14 11:08:30;;;;;;;4.18;0.40;;;15.70;95.30;;;;;;5070982;28;20165;-75
2021/10/14 11:11:06;;;;;;;0.30;0.30;;;14.80;96.90;;;;;;5070820;28;20161;-75
2021/10/14 11:13:37;;;;;;;1.85;0.60;;;15.20;97.20;;;;;;5070471;28;20164;-75
2021/10/14 11:16:10;;;;;;;1.38;0.40;;;15.30;99.20;;;;;;5068962;28;20200;-75
2021/10/14 11:18:37;;;;;;;0.30;0.30;;;15.20;95.70;;;;;;5070475;28;20217;-75
2021/10/14 11:21:10;;;;;;;1.08;0.40;;;15.10;96.20;;;;;;5068583;28;20277;-75
2021/10/14 11:23:42;;;;;;;1.25;0.70;;;14.90;97.00;;;;;;5069524;28;20157;-76
2021/10/14 11:26:17;;;;;;;0.93;0.32;;;15.00;98.90;;;;;;5067575;28;20243;-75
2021/10/14 11:28:52;;;;;;;0.73;0.60;;;15.10;96.10;;;;;;5069007;28;20191;-75
2021/10/14 11:31:38;;;;;;;0.57;0.50;;;14.90;97.90;;;;;;5068999;28;20183;-75
2021/10/14 11:34:16;;;;;;;0.50;0.43;;;14.80;97.80;;;;;;5067742;28;20172;-75
2021/10/14 11:36:58;;;;;;;0.68;0.35;;;14.60;98.70;;;;;;5069849;28;20208;-76
2021/10/14 11:39:42;;;;;;;1.80;0.45;;;14.40;99.20;;;;;;5070013;28;20179;-75
2021/10/14 11:42:16;;;;;;;1.27;0.63;;;14.30;98.50;;;;;;5061089;28;20177;-75
2021/10/14 11:44:52;;;;;;;1.77;0.40;;;14.10;99.90;;;;;;5067618;28;20639;-75
2021/10/14 11:47:22;;;;;;;3.65;0.40;;;14.00;97.40;;;;;;5069640;28;20159;-76
2021/10/14 11:50:22;;;;;;;0.38;0.38;;;13.90;99.00;;;;;;5073724;28;20168;-75
2021/10/14 11:52:59;;;;;;;1.75;0.30;;;13.90;98.10;;;;;;5020807;28;20230;-75
2021/10/14 11:55:25;;;;;;;2.28;0.40;;;13.90;99.50;;;;;;5007127;28;20336;-76
2021/10/14 11:57:51;;;;;;;0.40;0.40;;;13.80;98.20;;;;;;5007604;28;20215;-76
2021/10/14 12:00:17;;;;;;;0.30;0.30;;;13.70;98.00;;;;;;5007891;28;20167;-75
2021/10/14 12:02:44;;;;;;;0.77;0.47;;;13.40;98.10;;;;;;5007709;28;20211;-76
2021/10/14 12:05:11;;;;;;;3.70;0.60;;;13.40;99.90;;;;;;5007150;28;20195;-76
2021/10/14 12:07:41;;;;;;;3.97;0.63;;;13.50;98.70;;;;;;5007997;28;20633;-74
2021/10/14 12:10:07;;;;;;;1.90;0.50;;;13.50;99.10;;;;;;5007605;28;20183;-74
2021/10/14 12:12:33;;;;;;;0.90;0.38;;;13.50;98.70;;;;;;4991116;28;20170;-74
2021/10/14 12:15:08;;;;;;;1.17;0.30;;;13.60;98.70;;;;;;5006842;28;20194;-75
2021/10/14 12:17:42;;;;;;;1.83;0.40;;;13.60;98.30;;;;;;5007585;28;20210;-76
2021/10/14 12:20:25;;;;;;;0.40;0.30;;;13.50;98.00;;;;;;5007258;28;20163;-75
2021/10/14 12:22:59;;;;;;;1.15;0.40;;;13.40;99.60;;;;;;5007348;28;20186;-76
2021/10/14 12:25:39;;;;;;;0.82;0.52;;;13.40;99.00;;;;;;5006899;28;20245;-76
2021/10/14 12:28:08;;;;;;;3.45;0.35;;;13.30;98.70;;;;;;4994406;28;20174;-76
2021/10/14 12:30:38;;;;;;;1.95;0.30;;;13.30;99.00;;;;;;5049072;28;20181;-76
2021/10/14 12:33:09;;;;;;;0.30;0.30;;;13.20;98.80;;;;;;5047482;28;20181;-76
2021/10/14 12:35:37;;;;;;;1.35;0.38;;;13.10;99.70;;;;;;5048172;28;20247;-76
2021/10/14 12:38:09;;;;;;;5.97;0.60;;;13.20;99.30;;;;;;5048844;28;20235;-76
2021/10/14 12:40:42;;;;;;;0.13;0.13;;;13.20;99.90;;;;;;5048921;28;20161;-76
2021/10/14 12:43:26;;;;;;;0.52;0.20;;;13.10;99.50;;;;;;5050501;28;20180;-75
2021/10/14 12:51:09;;;;;;;3.83;0.43;;;12.80;99.60;;;;;;5073865;28;20279;-75
2021/10/14 12:53:49;;;;;;;0.30;0.30;;;12.90;99.90;;;;;;5072289;28;20250;-75
2021/10/14 12:56:17;;;;;;;0.90;0.20;;;13.00;99.40;;;;;;5068259;28;20192;-75
2021/10/14 12:58:44;;;;;;;0.25;0.20;;;12.90;99.70;;;;;;5068561;28;20168;-75
2021/10/14 13:01:13;;;;;;;0.95;0.45;;;12.90;99.60;;;;;;5068905;28;20188;-75
2021/10/14 13:03:40;;;;;;;0.80;0.63;;;12.90;99.90;;;;;;5068393;28;20159;-75